sensor_id;sensor_type;location;lat;lon;timestamp;P1;durP1;ratioP1;P2;durP2;ratioP2
39300;SDS011;25019;42.626;23.380;2023-06-19T00:00:04;4.00;;;3.40;;
39300;SDS011;25019;42.626;23.380;2023-06-19T00:02:37;3.50;;;3.20;;
39300;SDS011;25019;42.626;23.380;2023-06-19T00:05:04;4.53;;;4.00;;
39300;SDS011;25019;42.626;23.380;2023-06-19T00:07:30;4.43;;;3.40;;
39300;SDS011;25019;42.626;23.380;2023-06-19T00:09:56;5.20;;;3.50;;
39300;SDS011;25019;42.626;23.380;2023-06-19T00:12:21;4.73;;;3.50;;
39300;SDS011;25019;42.626;23.380;2023-06-19T00:14:47;3.77;;;3.47;;
39300;SDS011;25019;42.626;23.380;2023-06-19T00:17:13;4.87;;;3.73;;
39300;SDS011;25019;42.626;23.380;2023-06-19T00:19:42;4.10;;;3.50;;
39300;SDS011;25019;42.626;23.380;2023-06-19T00:22:08;3.67;;;3.30;;
39300;SDS011;25019;42.626;23.380;2023-06-19T00:24:34;4.20;;;3.30;;
39300;SDS011;25019;42.626;23.380;2023-06-19T00:26:59;4.43;;;3.83;;
39300;SDS011;25019;42.626;23.380;2023-06-19T00:29:28;5.53;;;3.67;;
39300;SDS011;25019;42.626;23.380;2023-06-19T00:31:55;4.47;;;3.40;;
39300;SDS011;25019;42.626;23.380;2023-06-19T00:34:21;4.40;;;3.53;;
39300;SDS011;25019;42.626;23.380;2023-06-19T00:36:49;3.80;;;3.10;;
39300;SDS011;25019;42.626;23.380;2023-06-19T00:39:16;4.30;;;3.90;;
39300;SDS011;25019;42.626;23.380;2023-06-19T00:41:43;4.60;;;4.00;;
39300;SDS011;25019;42.626;23.380;2023-06-19T00:44:09;4.60;;;3.47;;
39300;SDS011;25019;42.626;23.380;2023-06-19T00:46:36;4.73;;;3.53;;
39300;SDS011;25019;42.626;23.380;2023-06-19T00:49:05;6.63;;;4.17;;
39300;SDS011;25019;42.626;23.380;2023-06-19T00:51:31;4.77;;;3.50;;
39300;SDS011;25019;42.626;23.380;2023-06-19T00:53:57;4.33;;;3.80;;
39300;SDS011;25019;42.626;23.380;2023-06-19T00:56:22;4.17;;;3.77;;
39300;SDS011;25019;42.626;23.380;2023-06-19T00:58:49;3.80;;;3.50;;
39300;SDS011;25019;42.626;23.380;2023-06-19T01:01:16;4.83;;;3.47;;
39300;SDS011;25019;42.626;23.380;2023-06-19T01:03:41;4.27;;;3.70;;
39300;SDS011;25019;42.626;23.380;2023-06-19T01:06:13;5.53;;;3.93;;
39300;SDS011;25019;42.626;23.380;2023-06-19T01:08:58;5.07;;;3.70;;
39300;SDS011;25019;42.626;23.380;2023-06-19T01:11:38;4.10;;;3.70;;
39300;SDS011;25019;42.626;23.380;2023-06-19T01:14:14;4.50;;;3.60;;
39300;SDS011;25019;42.626;23.380;2023-06-19T01:16:44;4.33;;;3.40;;
39300;SDS011;25019;42.626;23.380;2023-06-19T01:19:11;5.23;;;3.67;;
39300;SDS011;25019;42.626;23.380;2023-06-19T01:21:47;4.50;;;3.57;;
39300;SDS011;25019;42.626;23.380;2023-06-19T01:24:14;4.50;;;4.10;;
39300;SDS011;25019;42.626;23.380;2023-06-19T01:26:40;5.67;;;4.10;;
39300;SDS011;25019;42.626;23.380;2023-06-19T01:29:05;6.03;;;4.00;;
39300;SDS011;25019;42.626;23.380;2023-06-19T01:34:24;6.40;;;4.10;;
39300;SDS011;25019;42.626;23.380;2023-06-19T01:36:52;5.40;;;4.30;;
39300;SDS011;25019;42.626;23.380;2023-06-19T01:39:22;7.07;;;4.57;;
39300;SDS011;25019;42.626;23.380;2023-06-19T01:41:49;5.93;;;4.27;;
39300;SDS011;25019;42.626;23.380;2023-06-19T01:44:16;4.67;;;4.27;;
39300;SDS011;25019;42.626;23.380;2023-06-19T01:46:47;5.27;;;4.60;;
39300;SDS011;25019;42.626;23.380;2023-06-19T01:49:13;4.67;;;4.27;;
39300;SDS011;25019;42.626;23.380;2023-06-19T01:51:39;7.00;;;4.33;;
39300;SDS011;25019;42.626;23.380;2023-06-19T01:54:06;5.30;;;4.80;;
39300;SDS011;25019;42.626;23.380;2023-06-19T01:56:31;5.60;;;4.27;;
39300;SDS011;25019;42.626;23.380;2023-06-19T01:58:58;5.30;;;4.70;;
39300;SDS011;25019;42.626;23.380;2023-06-19T02:01:24;5.57;;;4.50;;
39300;SDS011;25019;42.626;23.380;2023-06-19T02:03:50;5.27;;;4.77;;
39300;SDS011;25019;42.626;23.380;2023-06-19T02:06:16;6.60;;;4.57;;
39300;SDS011;25019;42.626;23.380;2023-06-19T02:08:41;7.13;;;5.23;;
39300;SDS011;25019;42.626;23.380;2023-06-19T02:11:10;6.50;;;4.93;;
39300;SDS011;25019;42.626;23.380;2023-06-19T02:13:36;6.13;;;5.50;;
39300;SDS011;25019;42.626;23.380;2023-06-19T02:16:02;8.53;;;5.17;;
39300;SDS011;25019;42.626;23.380;2023-06-19T02:18:27;9.67;;;5.67;;
39300;SDS011;25019;42.626;23.380;2023-06-19T02:20:53;6.03;;;5.50;;
39300;SDS011;25019;42.626;23.380;2023-06-19T02:23:18;6.50;;;5.70;;
39300;SDS011;25019;42.626;23.380;2023-06-19T02:25:44;7.60;;;5.07;;
39300;SDS011;25019;42.626;23.380;2023-06-19T02:28:09;5.83;;;5.33;;
39300;SDS011;25019;42.626;23.380;2023-06-19T02:30:35;8.10;;;5.63;;
39300;SDS011;25019;42.626;23.380;2023-06-19T02:33:01;10.17;;;5.70;;
39300;SDS011;25019;42.626;23.380;2023-06-19T02:35:26;11.63;;;5.73;;
39300;SDS011;25019;42.626;23.380;2023-06-19T02:37:54;9.53;;;5.97;;
39300;SDS011;25019;42.626;23.380;2023-06-19T02:40:20;7.10;;;6.33;;
39300;SDS011;25019;42.626;23.380;2023-06-19T02:42:47;6.57;;;5.53;;
39300;SDS011;25019;42.626;23.380;2023-06-19T02:45:13;8.10;;;5.50;;
39300;SDS011;25019;42.626;23.380;2023-06-19T02:47:39;8.47;;;6.27;;
39300;SDS011;25019;42.626;23.380;2023-06-19T02:50:05;8.37;;;6.53;;
39300;SDS011;25019;42.626;23.380;2023-06-19T02:52:31;9.00;;;6.00;;
39300;SDS011;25019;42.626;23.380;2023-06-19T02:54:58;8.67;;;6.43;;
39300;SDS011;25019;42.626;23.380;2023-06-19T02:57:24;7.40;;;5.97;;
39300;SDS011;25019;42.626;23.380;2023-06-19T02:59:49;7.73;;;6.37;;
39300;SDS011;25019;42.626;23.380;2023-06-19T03:02:15;6.90;;;6.30;;
39300;SDS011;25019;42.626;23.380;2023-06-19T03:04:42;8.87;;;5.90;;
39300;SDS011;25019;42.626;23.380;2023-06-19T03:07:09;7.40;;;6.53;;
39300;SDS011;25019;42.626;23.380;2023-06-19T03:09:34;8.93;;;5.80;;
39300;SDS011;25019;42.626;23.380;2023-06-19T03:12:01;7.87;;;6.20;;
39300;SDS011;25019;42.626;23.380;2023-06-19T03:14:28;5.97;;;5.37;;
39300;SDS011;25019;42.626;23.380;2023-06-19T03:16:54;6.20;;;5.57;;
39300;SDS011;25019;42.626;23.380;2023-06-19T03:19:19;6.40;;;5.50;;
39300;SDS011;25019;42.626;23.380;2023-06-19T03:21:46;6.67;;;5.87;;
39300;SDS011;25019;42.626;23.380;2023-06-19T03:24:12;8.87;;;5.80;;
39300;SDS011;25019;42.626;23.380;2023-06-19T03:26:37;7.43;;;5.83;;
39300;SDS011;25019;42.626;23.380;2023-06-19T03:29:03;7.13;;;6.17;;
39300;SDS011;25019;42.626;23.380;2023-06-19T03:31:40;9.00;;;6.33;;
39300;SDS011;25019;42.626;23.380;2023-06-19T03:34:07;8.73;;;6.90;;
39300;SDS011;25019;42.626;23.380;2023-06-19T03:36:34;9.33;;;6.47;;
39300;SDS011;25019;42.626;23.380;2023-06-19T03:39:06;8.17;;;5.87;;
39300;SDS011;25019;42.626;23.380;2023-06-19T03:41:32;6.60;;;5.77;;
39300;SDS011;25019;42.626;23.380;2023-06-19T03:43:57;7.53;;;5.87;;
39300;SDS011;25019;42.626;23.380;2023-06-19T03:46:23;8.07;;;5.43;;
39300;SDS011;25019;42.626;23.380;2023-06-19T03:48:49;5.53;;;5.03;;
39300;SDS011;25019;42.626;23.380;2023-06-19T03:51:15;6.70;;;5.40;;
39300;SDS011;25019;42.626;23.380;2023-06-19T03:53:40;7.53;;;4.83;;
39300;SDS011;25019;42.626;23.380;2023-06-19T03:56:07;5.13;;;4.63;;
39300;SDS011;25019;42.626;23.380;2023-06-19T03:58:33;6.33;;;4.80;;
39300;SDS011;25019;42.626;23.380;2023-06-19T04:00:59;4.90;;;4.40;;
39300;SDS011;25019;42.626;23.380;2023-06-19T04:03:24;6.53;;;4.40;;
39300;SDS011;25019;42.626;23.380;2023-06-19T04:05:50;6.67;;;4.43;;
39300;SDS011;25019;42.626;23.380;2023-06-19T04:08:15;7.20;;;4.53;;
39300;SDS011;25019;42.626;23.380;2023-06-19T04:10:42;5.23;;;4.73;;
39300;SDS011;25019;42.626;23.380;2023-06-19T04:13:08;6.17;;;4.50;;
39300;SDS011;25019;42.626;23.380;2023-06-19T04:15:35;5.07;;;4.27;;
39300;SDS011;25019;42.626;23.380;2023-06-19T04:18:02;4.73;;;4.10;;
39300;SDS011;25019;42.626;23.380;2023-06-19T04:20:29;5.77;;;4.37;;
39300;SDS011;25019;42.626;23.380;2023-06-19T04:22:54;6.30;;;4.47;;
39300;SDS011;25019;42.626;23.380;2023-06-19T04:25:20;5.67;;;4.40;;
39300;SDS011;25019;42.626;23.380;2023-06-19T04:27:46;5.17;;;4.27;;
39300;SDS011;25019;42.626;23.380;2023-06-19T04:30:11;5.30;;;4.20;;
39300;SDS011;25019;42.626;23.380;2023-06-19T04:32:37;4.57;;;3.93;;
39300;SDS011;25019;42.626;23.380;2023-06-19T04:35:06;4.90;;;4.00;;
39300;SDS011;25019;42.626;23.380;2023-06-19T04:37:33;7.13;;;4.00;;
39300;SDS011;25019;42.626;23.380;2023-06-19T04:39:59;6.30;;;3.90;;
39300;SDS011;25019;42.626;23.380;2023-06-19T04:42:24;6.00;;;4.10;;
39300;SDS011;25019;42.626;23.380;2023-06-19T04:44:51;9.23;;;4.10;;
39300;SDS011;25019;42.626;23.380;2023-06-19T04:47:19;4.97;;;3.93;;
39300;SDS011;25019;42.626;23.380;2023-06-19T04:49:45;7.23;;;4.40;;
39300;SDS011;25019;42.626;23.380;2023-06-19T04:52:11;8.27;;;4.50;;
39300;SDS011;25019;42.626;23.380;2023-06-19T04:54:37;5.43;;;3.93;;
39300;SDS011;25019;42.626;23.380;2023-06-19T04:57:03;7.33;;;4.17;;
39300;SDS011;25019;42.626;23.380;2023-06-19T04:59:30;4.33;;;3.87;;
39300;SDS011;25019;42.626;23.380;2023-06-19T05:01:56;5.93;;;3.90;;
39300;SDS011;25019;42.626;23.380;2023-06-19T05:04:22;5.67;;;3.73;;
39300;SDS011;25019;42.626;23.380;2023-06-19T05:06:48;6.87;;;3.73;;
39300;SDS011;25019;42.626;23.380;2023-06-19T05:09:16;6.97;;;4.53;;
39300;SDS011;25019;42.626;23.380;2023-06-19T05:11:41;6.77;;;3.90;;
39300;SDS011;25019;42.626;23.380;2023-06-19T05:14:07;5.70;;;4.07;;
39300;SDS011;25019;42.626;23.380;2023-06-19T05:16:33;5.90;;;4.47;;
39300;SDS011;25019;42.626;23.380;2023-06-19T05:18:59;3.93;;;3.53;;
39300;SDS011;25019;42.626;23.380;2023-06-19T05:21:25;6.23;;;4.37;;
39300;SDS011;25019;42.626;23.380;2023-06-19T05:23:51;5.10;;;3.60;;
39300;SDS011;25019;42.626;23.380;2023-06-19T05:26:18;6.33;;;4.00;;
39300;SDS011;25019;42.626;23.380;2023-06-19T05:28:48;6.37;;;3.47;;
39300;SDS011;25019;42.626;23.380;2023-06-19T05:31:14;4.37;;;3.40;;
39300;SDS011;25019;42.626;23.380;2023-06-19T05:33:42;4.30;;;3.37;;
39300;SDS011;25019;42.626;23.380;2023-06-19T05:36:08;4.10;;;3.70;;
39300;SDS011;25019;42.626;23.380;2023-06-19T05:38:33;4.23;;;3.27;;
39300;SDS011;25019;42.626;23.380;2023-06-19T05:40:59;6.33;;;3.57;;
39300;SDS011;25019;42.626;23.380;2023-06-19T05:43:25;6.03;;;3.70;;
39300;SDS011;25019;42.626;23.380;2023-06-19T05:45:52;3.47;;;3.17;;
39300;SDS011;25019;42.626;23.380;2023-06-19T05:48:18;4.63;;;3.90;;
39300;SDS011;25019;42.626;23.380;2023-06-19T05:50:44;5.27;;;3.33;;
39300;SDS011;25019;42.626;23.380;2023-06-19T05:53:10;5.40;;;3.87;;
39300;SDS011;25019;42.626;23.380;2023-06-19T05:55:35;5.43;;;3.83;;
39300;SDS011;25019;42.626;23.380;2023-06-19T05:58:02;4.10;;;3.53;;
39300;SDS011;25019;42.626;23.380;2023-06-19T06:00:29;5.33;;;3.90;;
39300;SDS011;25019;42.626;23.380;2023-06-19T06:02:56;7.77;;;5.43;;
39300;SDS011;25019;42.626;23.380;2023-06-19T06:05:24;4.27;;;3.87;;
39300;SDS011;25019;42.626;23.380;2023-06-19T06:07:53;4.13;;;3.63;;
39300;SDS011;25019;42.626;23.380;2023-06-19T06:10:20;5.17;;;3.40;;
39300;SDS011;25019;42.626;23.380;2023-06-19T06:12:47;5.70;;;4.67;;
39300;SDS011;25019;42.626;23.380;2023-06-19T06:15:13;4.40;;;3.30;;
39300;SDS011;25019;42.626;23.380;2023-06-19T06:17:39;4.07;;;3.13;;
39300;SDS011;25019;42.626;23.380;2023-06-19T06:20:04;4.73;;;3.50;;
39300;SDS011;25019;42.626;23.380;2023-06-19T06:22:40;3.77;;;3.47;;
39300;SDS011;25019;42.626;23.380;2023-06-19T06:25:07;4.30;;;3.60;;
39300;SDS011;25019;42.626;23.380;2023-06-19T06:27:36;4.70;;;3.33;;
39300;SDS011;25019;42.626;23.380;2023-06-19T06:30:04;11.43;;;3.70;;
39300;SDS011;25019;42.626;23.380;2023-06-19T06:32:38;5.10;;;4.03;;
39300;SDS011;25019;42.626;23.380;2023-06-19T06:35:06;6.13;;;4.50;;
39300;SDS011;25019;42.626;23.380;2023-06-19T06:37:32;4.53;;;3.23;;
39300;SDS011;25019;42.626;23.380;2023-06-19T06:39:58;5.40;;;3.83;;
39300;SDS011;25019;42.626;23.380;2023-06-19T06:42:23;4.80;;;4.23;;
39300;SDS011;25019;42.626;23.380;2023-06-19T06:44:49;4.17;;;3.77;;
39300;SDS011;25019;42.626;23.380;2023-06-19T06:47:14;3.97;;;3.57;;
39300;SDS011;25019;42.626;23.380;2023-06-19T06:49:40;5.77;;;4.00;;
39300;SDS011;25019;42.626;23.380;2023-06-19T06:52:06;8.07;;;3.77;;
39300;SDS011;25019;42.626;23.380;2023-06-19T06:54:32;4.13;;;3.67;;
39300;SDS011;25019;42.626;23.380;2023-06-19T06:56:58;5.60;;;4.20;;
39300;SDS011;25019;42.626;23.380;2023-06-19T06:59:25;3.80;;;3.50;;
39300;SDS011;25019;42.626;23.380;2023-06-19T07:01:52;4.67;;;3.70;;
39300;SDS011;25019;42.626;23.380;2023-06-19T07:04:18;4.73;;;4.00;;
39300;SDS011;25019;42.626;23.380;2023-06-19T07:06:44;4.63;;;3.93;;
39300;SDS011;25019;42.626;23.380;2023-06-19T07:09:10;5.87;;;3.67;;
39300;SDS011;25019;42.626;23.380;2023-06-19T07:11:35;4.70;;;3.93;;
39300;SDS011;25019;42.626;23.380;2023-06-19T07:14:01;4.50;;;3.97;;
39300;SDS011;25019;42.626;23.380;2023-06-19T07:16:27;7.27;;;3.60;;
39300;SDS011;25019;42.626;23.380;2023-06-19T07:18:53;6.17;;;3.73;;
39300;SDS011;25019;42.626;23.380;2023-06-19T07:21:19;4.40;;;3.60;;
39300;SDS011;25019;42.626;23.380;2023-06-19T07:23:45;3.60;;;3.30;;
39300;SDS011;25019;42.626;23.380;2023-06-19T07:26:13;4.93;;;3.67;;
39300;SDS011;25019;42.626;23.380;2023-06-19T07:28:39;4.67;;;3.87;;
39300;SDS011;25019;42.626;23.380;2023-06-19T07:31:08;3.80;;;3.50;;
39300;SDS011;25019;42.626;23.380;2023-06-19T07:33:36;3.87;;;3.27;;
39300;SDS011;25019;42.626;23.380;2023-06-19T07:36:02;4.53;;;3.93;;
39300;SDS011;25019;42.626;23.380;2023-06-19T07:38:28;4.20;;;3.80;;
39300;SDS011;25019;42.626;23.380;2023-06-19T07:40:54;3.90;;;3.60;;
39300;SDS011;25019;42.626;23.380;2023-06-19T07:43:19;4.60;;;4.20;;
39300;SDS011;25019;42.626;23.380;2023-06-19T07:45:47;4.73;;;3.60;;
39300;SDS011;25019;42.626;23.380;2023-06-19T07:48:21;3.77;;;3.37;;
39300;SDS011;25019;42.626;23.380;2023-06-19T07:50:49;4.47;;;3.27;;
39300;SDS011;25019;42.626;23.380;2023-06-19T07:53:15;5.63;;;3.43;;
39300;SDS011;25019;42.626;23.380;2023-06-19T07:55:44;4.83;;;4.10;;
39300;SDS011;25019;42.626;23.380;2023-06-19T07:58:12;4.57;;;3.60;;
39300;SDS011;25019;42.626;23.380;2023-06-19T08:00:37;5.53;;;3.90;;
39300;SDS011;25019;42.626;23.380;2023-06-19T08:03:04;4.47;;;3.70;;
39300;SDS011;25019;42.626;23.380;2023-06-19T08:05:30;3.87;;;3.47;;
39300;SDS011;25019;42.626;23.380;2023-06-19T08:07:58;4.50;;;4.10;;
39300;SDS011;25019;42.626;23.380;2023-06-19T08:10:25;4.70;;;3.70;;
39300;SDS011;25019;42.626;23.380;2023-06-19T08:12:50;7.03;;;5.13;;
39300;SDS011;25019;42.626;23.380;2023-06-19T08:15:16;7.20;;;4.67;;
39300;SDS011;25019;42.626;23.380;2023-06-19T08:17:42;8.30;;;5.47;;
39300;SDS011;25019;42.626;23.380;2023-06-19T08:20:08;6.20;;;3.70;;
39300;SDS011;25019;42.626;23.380;2023-06-19T08:22:34;7.07;;;4.60;;
39300;SDS011;25019;42.626;23.380;2023-06-19T08:25:00;3.80;;;3.40;;
39300;SDS011;25019;42.626;23.380;2023-06-19T08:27:38;5.13;;;3.70;;
39300;SDS011;25019;42.626;23.380;2023-06-19T08:30:09;4.93;;;3.40;;
39300;SDS011;25019;42.626;23.380;2023-06-19T08:32:35;4.83;;;3.67;;
39300;SDS011;25019;42.626;23.380;2023-06-19T08:35:01;5.93;;;4.10;;
39300;SDS011;25019;42.626;23.380;2023-06-19T08:37:26;3.93;;;3.00;;
39300;SDS011;25019;42.626;23.380;2023-06-19T08:39:52;4.37;;;3.70;;
39300;SDS011;25019;42.626;23.380;2023-06-19T08:42:17;4.33;;;3.70;;
39300;SDS011;25019;42.626;23.380;2023-06-19T08:44:43;3.60;;;2.90;;
39300;SDS011;25019;42.626;23.380;2023-06-19T08:47:09;5.97;;;3.13;;
39300;SDS011;25019;42.626;23.380;2023-06-19T08:49:35;3.70;;;3.00;;
39300;SDS011;25019;42.626;23.380;2023-06-19T08:52:01;5.87;;;3.63;;
39300;SDS011;25019;42.626;23.380;2023-06-19T08:54:27;3.73;;;3.43;;
39300;SDS011;25019;42.626;23.380;2023-06-19T08:56:53;3.80;;;3.43;;
39300;SDS011;25019;42.626;23.380;2023-06-19T08:59:20;4.50;;;3.10;;
39300;SDS011;25019;42.626;23.380;2023-06-19T09:01:46;4.27;;;3.40;;
39300;SDS011;25019;42.626;23.380;2023-06-19T09:04:24;4.33;;;3.23;;
39300;SDS011;25019;42.626;23.380;2023-06-19T09:07:00;4.00;;;3.40;;
39300;SDS011;25019;42.626;23.380;2023-06-19T09:09:31;3.50;;;3.20;;
39300;SDS011;25019;42.626;23.380;2023-06-19T09:12:04;4.63;;;3.30;;
39300;SDS011;25019;42.626;23.380;2023-06-19T09:17:07;4.80;;;3.30;;
39300;SDS011;25019;42.626;23.380;2023-06-19T09:19:36;3.90;;;2.97;;
39300;SDS011;25019;42.626;23.380;2023-06-19T09:22:03;3.70;;;3.20;;
39300;SDS011;25019;42.626;23.380;2023-06-19T09:24:33;4.27;;;2.93;;
39300;SDS011;25019;42.626;23.380;2023-06-19T09:27:13;4.80;;;3.53;;
39300;SDS011;25019;42.626;23.380;2023-06-19T09:29:40;3.80;;;3.40;;
39300;SDS011;25019;42.626;23.380;2023-06-19T09:32:19;5.97;;;5.10;;
39300;SDS011;25019;42.626;23.380;2023-06-19T09:34:47;5.83;;;2.90;;
39300;SDS011;25019;42.626;23.380;2023-06-19T09:37:16;3.03;;;2.83;;
39300;SDS011;25019;42.626;23.380;2023-06-19T09:39:47;3.73;;;3.37;;
39300;SDS011;25019;42.626;23.380;2023-06-19T09:42:18;3.37;;;3.07;;
39300;SDS011;25019;42.626;23.380;2023-06-19T09:44:51;4.43;;;3.40;;
39300;SDS011;25019;42.626;23.380;2023-06-19T09:47:23;7.60;;;5.30;;
39300;SDS011;25019;42.626;23.380;2023-06-19T09:49:54;8.43;;;3.87;;
39300;SDS011;25019;42.626;23.380;2023-06-19T09:52:21;3.47;;;2.90;;
39300;SDS011;25019;42.626;23.380;2023-06-19T09:54:49;5.33;;;3.07;;
39300;SDS011;25019;42.626;23.380;2023-06-19T09:57:16;3.20;;;2.90;;
39300;SDS011;25019;42.626;23.380;2023-06-19T09:59:45;6.57;;;4.30;;
39300;SDS011;25019;42.626;23.380;2023-06-19T10:02:12;7.67;;;4.53;;
39300;SDS011;25019;42.626;23.380;2023-06-19T10:04:47;3.43;;;3.00;;
39300;SDS011;25019;42.626;23.380;2023-06-19T10:07:22;4.87;;;3.70;;
39300;SDS011;25019;42.626;23.380;2023-06-19T10:09:56;5.90;;;3.43;;
39300;SDS011;25019;42.626;23.380;2023-06-19T10:12:21;3.63;;;3.27;;
39300;SDS011;25019;42.626;23.380;2023-06-19T10:14:47;4.50;;;2.70;;
39300;SDS011;25019;42.626;23.380;2023-06-19T10:17:16;9.57;;;4.20;;
39300;SDS011;25019;42.626;23.380;2023-06-19T10:19:52;4.67;;;3.30;;
39300;SDS011;25019;42.626;23.380;2023-06-19T10:22:20;4.67;;;3.30;;
39300;SDS011;25019;42.626;23.380;2023-06-19T10:24:49;3.90;;;3.40;;
39300;SDS011;25019;42.626;23.380;2023-06-19T10:27:20;6.50;;;3.80;;
39300;SDS011;25019;42.626;23.380;2023-06-19T10:29:51;5.90;;;3.97;;
39300;SDS011;25019;42.626;23.380;2023-06-19T10:32:18;4.70;;;3.50;;
39300;SDS011;25019;42.626;23.380;2023-06-19T10:34:47;3.97;;;3.03;;
39300;SDS011;25019;42.626;23.380;2023-06-19T10:37:14;3.90;;;3.23;;
39300;SDS011;25019;42.626;23.380;2023-06-19T10:39:41;5.47;;;3.63;;
39300;SDS011;25019;42.626;23.380;2023-06-19T10:42:07;3.57;;;3.00;;
39300;SDS011;25019;42.626;23.380;2023-06-19T10:44:34;4.23;;;3.67;;
39300;SDS011;25019;42.626;23.380;2023-06-19T10:47:00;4.87;;;3.90;;
39300;SDS011;25019;42.626;23.380;2023-06-19T10:49:27;3.33;;;2.60;;
39300;SDS011;25019;42.626;23.380;2023-06-19T10:51:53;2.83;;;2.63;;
39300;SDS011;25019;42.626;23.380;2023-06-19T10:54:24;5.63;;;3.40;;
39300;SDS011;25019;42.626;23.380;2023-06-19T10:56:50;4.33;;;3.30;;
39300;SDS011;25019;42.626;23.380;2023-06-19T10:59:16;4.27;;;3.37;;
39300;SDS011;25019;42.626;23.380;2023-06-19T11:01:47;2.80;;;2.60;;
39300;SDS011;25019;42.626;23.380;2023-06-19T11:04:14;5.43;;;3.57;;
39300;SDS011;25019;42.626;23.380;2023-06-19T11:06:41;3.30;;;2.90;;
39300;SDS011;25019;42.626;23.380;2023-06-19T11:09:09;4.30;;;3.20;;
39300;SDS011;25019;42.626;23.380;2023-06-19T11:11:40;3.60;;;3.20;;
39300;SDS011;25019;42.626;23.380;2023-06-19T11:14:10;3.60;;;3.30;;
39300;SDS011;25019;42.626;23.380;2023-06-19T11:16:41;4.60;;;3.20;;
39300;SDS011;25019;42.626;23.380;2023-06-19T11:19:08;3.60;;;3.30;;
39300;SDS011;25019;42.626;23.380;2023-06-19T11:21:36;3.40;;;3.07;;
39300;SDS011;25019;42.626;23.380;2023-06-19T11:24:10;3.53;;;3.23;;
39300;SDS011;25019;42.626;23.380;2023-06-19T11:26:41;3.27;;;2.97;;
39300;SDS011;25019;42.626;23.380;2023-06-19T11:29:18;3.40;;;3.10;;
39300;SDS011;25019;42.626;23.380;2023-06-19T11:31:45;3.40;;;3.10;;
39300;SDS011;25019;42.626;23.380;2023-06-19T11:34:12;4.87;;;3.53;;
39300;SDS011;25019;42.626;23.380;2023-06-19T11:36:41;4.83;;;3.20;;
39300;SDS011;25019;42.626;23.380;2023-06-19T11:39:11;3.57;;;3.27;;
39300;SDS011;25019;42.626;23.380;2023-06-19T11:41:45;4.67;;;3.23;;
39300;SDS011;25019;42.626;23.380;2023-06-19T11:44:10;3.63;;;3.33;;
39300;SDS011;25019;42.626;23.380;2023-06-19T11:46:36;6.43;;;3.10;;
39300;SDS011;25019;42.626;23.380;2023-06-19T11:49:15;6.00;;;3.80;;
39300;SDS011;25019;42.626;23.380;2023-06-19T11:51:43;3.80;;;3.40;;
39300;SDS011;25019;42.626;23.380;2023-06-19T11:54:09;5.17;;;3.50;;
39300;SDS011;25019;42.626;23.380;2023-06-19T11:56:39;3.87;;;3.50;;
39300;SDS011;25019;42.626;23.380;2023-06-19T11:59:05;4.47;;;3.63;;
39300;SDS011;25019;42.626;23.380;2023-06-19T12:01:31;4.20;;;3.70;;
39300;SDS011;25019;42.626;23.380;2023-06-19T12:03:59;5.27;;;4.00;;
39300;SDS011;25019;42.626;23.380;2023-06-19T12:06:25;4.63;;;3.73;;
39300;SDS011;25019;42.626;23.380;2023-06-19T12:08:51;4.60;;;3.70;;
39300;SDS011;25019;42.626;23.380;2023-06-19T12:11:17;5.33;;;3.33;;
39300;SDS011;25019;42.626;23.380;2023-06-19T12:13:42;6.00;;;3.80;;
39300;SDS011;25019;42.626;23.380;2023-06-19T12:16:09;6.93;;;3.70;;
39300;SDS011;25019;42.626;23.380;2023-06-19T12:18:35;6.03;;;3.83;;
39300;SDS011;25019;42.626;23.380;2023-06-19T12:21:01;4.20;;;3.80;;
39300;SDS011;25019;42.626;23.380;2023-06-19T12:23:27;4.73;;;3.50;;
39300;SDS011;25019;42.626;23.380;2023-06-19T12:25:53;5.53;;;4.03;;
39300;SDS011;25019;42.626;23.380;2023-06-19T12:28:18;6.57;;;4.10;;
39300;SDS011;25019;42.626;23.380;2023-06-19T12:30:44;5.27;;;3.90;;
39300;SDS011;25019;42.626;23.380;2023-06-19T12:33:10;4.47;;;3.63;;
39300;SDS011;25019;42.626;23.380;2023-06-19T12:35:39;5.73;;;3.80;;
39300;SDS011;25019;42.626;23.380;2023-06-19T12:38:09;5.27;;;3.70;;
39300;SDS011;25019;42.626;23.380;2023-06-19T12:40:36;4.33;;;3.70;;
39300;SDS011;25019;42.626;23.380;2023-06-19T12:43:02;4.40;;;4.00;;
39300;SDS011;25019;42.626;23.380;2023-06-19T12:45:28;4.40;;;4.00;;
39300;SDS011;25019;42.626;23.380;2023-06-19T12:47:54;5.47;;;4.17;;
39300;SDS011;25019;42.626;23.380;2023-06-19T12:50:19;5.57;;;3.77;;
39300;SDS011;25019;42.626;23.380;2023-06-19T12:52:45;6.07;;;3.60;;
39300;SDS011;25019;42.626;23.380;2023-06-19T12:55:10;4.00;;;3.30;;
39300;SDS011;25019;42.626;23.380;2023-06-19T12:57:36;3.80;;;3.40;;
39300;SDS011;25019;42.626;23.380;2023-06-19T13:00:02;4.47;;;3.57;;
39300;SDS011;25019;42.626;23.380;2023-06-19T13:02:33;4.43;;;4.00;;
39300;SDS011;25019;42.626;23.380;2023-06-19T13:04:59;4.20;;;3.63;;
39300;SDS011;25019;42.626;23.380;2023-06-19T13:07:25;4.40;;;3.00;;
39300;SDS011;25019;42.626;23.380;2023-06-19T13:09:50;4.03;;;3.47;;
39300;SDS011;25019;42.626;23.380;2023-06-19T13:12:16;3.97;;;3.57;;
39300;SDS011;25019;42.626;23.380;2023-06-19T13:14:41;4.20;;;3.80;;
39300;SDS011;25019;42.626;23.380;2023-06-19T13:17:07;6.77;;;3.80;;
39300;SDS011;25019;42.626;23.380;2023-06-19T13:19:33;4.40;;;4.00;;
39300;SDS011;25019;42.626;23.380;2023-06-19T13:21:58;4.13;;;3.53;;
39300;SDS011;25019;42.626;23.380;2023-06-19T13:24:24;4.33;;;3.87;;
39300;SDS011;25019;42.626;23.380;2023-06-19T13:26:52;6.17;;;3.27;;
39300;SDS011;25019;42.626;23.380;2023-06-19T13:29:19;5.97;;;3.57;;
39300;SDS011;25019;42.626;23.380;2023-06-19T13:31:44;5.20;;;3.40;;
39300;SDS011;25019;42.626;23.380;2023-06-19T13:34:10;4.60;;;3.40;;
39300;SDS011;25019;42.626;23.380;2023-06-19T13:36:36;5.67;;;3.50;;
39300;SDS011;25019;42.626;23.380;2023-06-19T13:39:02;5.47;;;3.50;;
39300;SDS011;25019;42.626;23.380;2023-06-19T13:41:28;5.57;;;3.47;;
39300;SDS011;25019;42.626;23.380;2023-06-19T13:43:56;4.17;;;3.70;;
39300;SDS011;25019;42.626;23.380;2023-06-19T13:46:22;3.57;;;3.27;;
39300;SDS011;25019;42.626;23.380;2023-06-19T13:48:47;3.63;;;3.33;;
39300;SDS011;25019;42.626;23.380;2023-06-19T13:51:19;4.00;;;3.57;;
39300;SDS011;25019;42.626;23.380;2023-06-19T13:53:46;5.37;;;4.00;;
39300;SDS011;25019;42.626;23.380;2023-06-19T13:56:12;3.90;;;3.50;;
39300;SDS011;25019;42.626;23.380;2023-06-19T13:58:38;4.97;;;3.60;;
39300;SDS011;25019;42.626;23.380;2023-06-19T14:01:04;5.53;;;3.30;;
39300;SDS011;25019;42.626;23.380;2023-06-19T14:03:30;4.00;;;3.57;;
39300;SDS011;25019;42.626;23.380;2023-06-19T14:05:56;4.57;;;3.50;;
39300;SDS011;25019;42.626;23.380;2023-06-19T14:08:21;3.77;;;3.30;;
39300;SDS011;25019;42.626;23.380;2023-06-19T14:10:47;3.93;;;3.53;;
39300;SDS011;25019;42.626;23.380;2023-06-19T14:13:13;4.50;;;3.60;;
39300;SDS011;25019;42.626;23.380;2023-06-19T14:15:38;5.27;;;3.10;;
39300;SDS011;25019;42.626;23.380;2023-06-19T14:18:04;3.83;;;3.10;;
39300;SDS011;25019;42.626;23.380;2023-06-19T14:20:30;4.23;;;3.20;;
39300;SDS011;25019;42.626;23.380;2023-06-19T14:22:56;3.57;;;3.27;;
39300;SDS011;25019;42.626;23.380;2023-06-19T14:25:21;5.33;;;3.23;;
39300;SDS011;25019;42.626;23.380;2023-06-19T14:27:47;7.37;;;3.43;;
39300;SDS011;25019;42.626;23.380;2023-06-19T14:30:13;5.77;;;3.43;;
39300;SDS011;25019;42.626;23.380;2023-06-19T14:32:38;4.27;;;3.40;;
39300;SDS011;25019;42.626;23.380;2023-06-19T14:35:04;4.50;;;3.50;;
39300;SDS011;25019;42.626;23.380;2023-06-19T14:37:30;7.07;;;3.63;;